createdAt,value
2022-12-16T00:45:30.472Z,15.29
2022-12-16T00:47:58.684Z,15.31
2022-12-16T00:50:26.231Z,15.31
2022-12-16T00:52:53.841Z,15.29
2022-12-16T00:55:22.690Z,15.29
2022-12-16T00:57:50.292Z,15.31
2022-12-16T01:47:17.432Z,15.27
2022-12-16T01:49:45.482Z,15.26
2022-12-16T01:52:15.003Z,15.28
2022-12-16T01:54:43.414Z,15.27
2022-12-16T01:57:12.896Z,15.27
2022-12-16T01:59:40.902Z,15.27
2022-12-16T02:46:09.941Z,15.25
2022-12-16T02:48:37.611Z,15.23
2022-12-16T02:51:05.222Z,15.24
2022-12-16T02:53:33.513Z,15.23
2022-12-16T02:56:03.009Z,15.24
2022-12-16T02:58:32.120Z,15.22
2022-12-16T03:47:54.387Z,15.19
2022-12-16T03:50:23.053Z,15.20
2022-12-16T03:52:50.646Z,15.21
2022-12-16T03:55:18.406Z,15.19
2022-12-16T03:57:46.018Z,15.20
2022-12-16T04:45:56.975Z,15.18
2022-12-16T04:48:41.964Z,15.17
2022-12-16T04:51:26.970Z,15.18
2022-12-16T04:54:12.462Z,15.17
2022-12-16T04:56:57.459Z,15.18
2022-12-16T04:59:42.361Z,15.17
2022-12-16T05:31:45.249Z,15.19
2022-12-16T05:34:30.459Z,15.18
2022-12-16T05:37:15.515Z,15.18
2022-12-16T05:40:00.413Z,15.19
2022-12-16T05:42:45.262Z,15.18
2022-12-16T05:45:30.233Z,15.18
2022-12-16T05:48:17.007Z,15.18
2022-12-16T05:51:01.813Z,15.19
2022-12-16T05:53:46.589Z,15.18
2022-12-16T05:56:42.987Z,15.19
2022-12-16T05:59:28.336Z,15.19
2022-12-16T06:02:13.393Z,15.18
2022-12-16T06:04:59.980Z,15.19
2022-12-16T06:07:44.855Z,15.18
2022-12-16T06:10:29.773Z,15.18
2022-12-16T06:13:14.789Z,15.20
2022-12-16T06:16:05.115Z,15.19
2022-12-16T06:18:53.149Z,15.18
2022-12-16T06:21:39.343Z,15.19
2022-12-16T06:24:24.707Z,15.18
2022-12-16T06:27:09.598Z,15.17
2022-12-16T06:29:54.580Z,15.17
2022-12-16T06:32:39.450Z,15.17
2022-12-16T06:35:24.668Z,15.17
2022-12-16T06:38:11.464Z,15.18
2022-12-16T06:40:56.355Z,15.17
2022-12-16T06:43:41.264Z,15.17
2022-12-16T06:46:26.226Z,15.18
2022-12-16T06:49:11.438Z,15.17
2022-12-16T06:51:56.551Z,15.18
2022-12-16T06:54:43.333Z,15.18
2022-12-16T06:57:28.163Z,15.19
2022-12-16T07:00:13.046Z,15.18
2022-12-16T07:02:58.513Z,15.17
2022-12-16T07:05:43.570Z,15.16
2022-12-16T07:08:28.607Z,15.16
2022-12-16T07:11:17.087Z,15.16
2022-12-16T07:14:02.590Z,15.16
2022-12-16T07:16:47.604Z,15.16
2022-12-16T07:19:32.804Z,15.17
2022-12-16T07:22:17.875Z,15.17
2022-12-16T07:25:03.011Z,15.18
2022-12-16T07:27:45.856Z,15.17
2022-12-16T07:30:31.296Z,15.18
2022-12-16T07:33:15.413Z,15.17
2022-12-16T07:36:00.931Z,15.12
2022-12-16T07:38:46.108Z,15.17
2022-12-16T07:41:31.357Z,15.17
2022-12-16T07:44:18.029Z,15.18
2022-12-16T07:47:03.200Z,15.18
2022-12-16T07:49:48.447Z,15.19
2022-12-16T07:52:33.446Z,15.17
2022-12-16T07:55:18.654Z,15.17
2022-12-16T07:58:04.166Z,15.17
2022-12-16T08:46:35.765Z,15.18
2022-12-16T08:49:21.075Z,15.19
2022-12-16T08:52:06.588Z,15.19
2022-12-16T08:54:51.738Z,15.19
2022-12-16T08:57:36.820Z,15.20
2022-12-16T09:29:41.905Z,15.23
2022-12-16T09:32:28.914Z,15.24
2022-12-16T09:35:14.011Z,15.24
2022-12-16T09:38:03.802Z,15.25
2022-12-16T09:40:49.077Z,15.26
2022-12-16T09:43:40.062Z,15.24
2022-12-16T09:46:27.985Z,15.25
2022-12-16T09:49:13.589Z,15.25
2022-12-16T09:51:58.519Z,15.25
2022-12-16T09:54:45.046Z,15.26
2022-12-16T09:57:30.125Z,15.25
2022-12-16T10:00:15.878Z,15.26
2022-12-16T10:03:06.689Z,15.27
2022-12-16T10:05:54.441Z,15.27
2022-12-16T10:08:41.324Z,15.27
2022-12-16T10:11:27.667Z,15.27
2022-12-16T10:14:17.809Z,15.28
2022-12-16T10:17:05.957Z,15.28
2022-12-16T10:19:55.523Z,15.29
2022-12-16T10:22:41.817Z,15.30
2022-12-16T10:25:27.197Z,15.30
2022-12-16T10:28:13.526Z,15.29
2022-12-16T10:31:12.938Z,15.29
2022-12-16T10:34:00.431Z,15.28
2022-12-16T10:36:47.146Z,15.29
2022-12-16T10:39:35.483Z,15.29
2022-12-16T10:42:21.061Z,15.29
2022-12-16T10:45:06.964Z,15.29
2022-12-16T10:47:52.013Z,15.29
2022-12-16T10:50:37.566Z,15.28
2022-12-16T10:53:29.081Z,15.31
2022-12-16T10:56:16.254Z,15.29
2022-12-16T10:59:03.203Z,15.31
2022-12-16T11:04:47.202Z,15.32
2022-12-16T11:07:51.601Z,15.33
2022-12-16T11:10:46.684Z,15.32
2022-12-16T11:13:35.635Z,15.33
2022-12-16T11:16:24.890Z,15.31
2022-12-16T11:19:10.163Z,15.33
2022-12-16T11:21:55.153Z,15.29
2022-12-16T11:24:40.015Z,15.31
2022-12-16T11:27:42.601Z,15.34
2022-12-16T11:30:34.109Z,15.34
2022-12-16T11:33:21.900Z,15.36
2022-12-16T11:36:07.850Z,15.37
2022-12-16T11:38:55.077Z,15.37
2022-12-16T11:41:42.772Z,15.39
2022-12-16T11:44:32.334Z,15.40
2022-12-16T11:47:17.227Z,15.39
2022-12-16T11:50:10.492Z,15.40
2022-12-16T11:52:55.487Z,15.39
2022-12-16T11:56:05.448Z,15.38
2022-12-16T11:58:50.160Z,15.38
2022-12-16T12:01:55.437Z,15.39
2022-12-16T12:04:40.951Z,15.39
2022-12-16T12:07:30.352Z,15.39
2022-12-16T12:10:16.851Z,15.39
2022-12-16T12:13:02.992Z,15.40
2022-12-16T12:15:49.040Z,15.40
2022-12-16T12:18:37.983Z,15.39
2022-12-16T12:21:24.684Z,15.40
2022-12-16T12:24:11.898Z,15.41
2022-12-16T12:26:57.688Z,15.39
2022-12-16T12:29:45.262Z,15.40
2022-12-16T12:32:33.679Z,15.38
2022-12-16T12:35:22.061Z,15.39
2022-12-16T12:38:08.649Z,15.39
2022-12-16T12:40:58.008Z,15.39
2022-12-16T12:43:46.012Z,15.39
2022-12-16T12:46:32.828Z,15.40
2022-12-16T12:49:19.743Z,15.38
2022-12-16T12:52:08.285Z,15.40
2022-12-16T12:54:55.928Z,15.39
2022-12-16T12:57:41.659Z,15.41
2022-12-16T13:00:37.746Z,15.41
2022-12-16T13:03:23.932Z,15.40
2022-12-16T13:06:08.958Z,15.40
2022-12-16T13:09:12.209Z,15.41
2022-12-16T13:11:57.435Z,15.41
2022-12-16T13:15:09.482Z,15.41
2022-12-16T13:18:11.648Z,15.39
2022-12-16T13:20:56.667Z,15.40
2022-12-16T13:23:47.222Z,15.39
2022-12-16T13:26:33.913Z,15.40
2022-12-16T13:29:21.605Z,15.40
2022-12-16T13:32:17.872Z,15.42
2022-12-16T13:35:02.965Z,15.42
2022-12-16T13:37:48.137Z,15.42
2022-12-16T13:40:34.202Z,15.40
2022-12-16T13:43:23.673Z,15.40
2022-12-16T13:46:24.242Z,15.39
2022-12-16T13:49:09.284Z,15.39
2022-12-16T13:52:24.411Z,15.41
2022-12-16T13:55:11.750Z,15.39
2022-12-16T13:58:00.571Z,15.40
2022-12-16T14:00:47.684Z,15.42
2022-12-16T14:03:30.508Z,15.41
2022-12-16T14:06:15.670Z,15.42
2022-12-16T14:12:01.865Z,15.43
2022-12-16T14:14:49.437Z,15.43
2022-12-16T14:17:36.325Z,15.44
2022-12-16T14:20:21.991Z,15.44
2022-12-16T14:23:10.667Z,15.43
2022-12-16T14:26:02.954Z,15.44
2022-12-16T14:28:50.614Z,15.45
2022-12-16T14:31:35.947Z,15.46
2022-12-16T14:34:22.810Z,15.44
2022-12-16T14:37:07.839Z,15.43
2022-12-16T14:39:58.218Z,15.44
2022-12-16T14:42:43.911Z,15.44
2022-12-16T14:45:43.586Z,15.44
2022-12-16T14:48:49.464Z,15.43
2022-12-16T14:51:46.046Z,15.40
2022-12-16T14:54:38.663Z,15.45
2022-12-16T14:57:23.828Z,15.46
2022-12-16T15:00:18.111Z,15.45
2022-12-16T15:03:03.529Z,15.46
2022-12-16T15:05:49.397Z,15.46
2022-12-16T15:08:36.466Z,15.46
2022-12-16T15:11:21.975Z,15.46
2022-12-16T15:14:15.398Z,15.46
2022-12-16T15:17:00.557Z,15.46
2022-12-16T15:19:45.366Z,15.47
2022-12-16T15:22:31.434Z,15.46
2022-12-16T15:25:18.404Z,15.47
2022-12-16T15:28:11.093Z,15.46
2022-12-16T15:30:56.527Z,15.47
2022-12-16T15:33:42.378Z,15.46
2022-12-16T15:36:32.563Z,15.47
2022-12-16T15:39:17.451Z,15.45
2022-12-16T15:42:05.093Z,15.47
2022-12-16T15:44:50.160Z,15.46
2022-12-16T15:47:38.086Z,15.47
2022-12-16T15:50:23.833Z,15.47
2022-12-16T15:53:09.329Z,15.47
2022-12-16T15:55:57.124Z,15.46
2022-12-16T15:58:47.765Z,15.46
2022-12-16T16:01:33.821Z,15.46
2022-12-16T16:04:19.073Z,15.47
2022-12-16T16:07:04.361Z,15.47
2022-12-16T16:09:50.213Z,15.47
2022-12-16T16:12:35.683Z,15.47
2022-12-16T16:15:22.461Z,15.46
2022-12-16T16:18:07.585Z,15.45
2022-12-16T16:20:52.521Z,15.46
2022-12-16T16:23:37.631Z,15.46
2022-12-16T16:26:22.912Z,15.46
2022-12-16T16:29:07.953Z,15.48
2022-12-16T16:31:57.107Z,15.47
2022-12-16T16:34:46.775Z,15.48
2022-12-16T16:37:32.095Z,15.47
2022-12-16T16:40:18.523Z,15.46
2022-12-16T16:43:03.888Z,15.47
2022-12-16T16:45:48.849Z,15.46
2022-12-16T16:48:35.802Z,15.47
2022-12-16T16:51:21.468Z,15.47
2022-12-16T16:54:06.733Z,15.45
2022-12-16T16:56:52.317Z,15.47
2022-12-16T16:59:37.835Z,15.47
2022-12-16T17:02:24.664Z,15.48
2022-12-16T17:05:11.835Z,15.49
2022-12-16T17:07:56.783Z,15.48
2022-12-16T17:10:41.937Z,15.48
2022-12-16T17:13:27.131Z,15.48
2022-12-16T17:16:11.988Z,15.48
2022-12-16T17:18:57.395Z,15.48
2022-12-16T17:21:43.818Z,15.47
2022-12-16T17:24:28.653Z,15.48
2022-12-16T17:27:13.635Z,15.47
2022-12-16T17:29:58.626Z,15.47
2022-12-16T17:32:43.882Z,15.47
2022-12-16T17:35:29.287Z,15.47
2022-12-16T17:38:16.040Z,15.47
2022-12-16T17:41:01.027Z,15.48
2022-12-16T17:43:45.926Z,15.48
2022-12-16T17:46:31.146Z,15.47
2022-12-16T17:49:16.375Z,15.48
2022-12-16T17:52:01.312Z,15.47
2022-12-16T17:54:48.023Z,15.48
2022-12-16T17:57:33.359Z,15.48
2022-12-16T18:00:18.324Z,15.47
2022-12-16T18:03:03.446Z,15.48
2022-12-16T18:05:48.558Z,15.48
2022-12-16T18:08:33.494Z,15.48
2022-12-16T18:11:19.738Z,15.48
2022-12-16T18:14:04.765Z,15.49
2022-12-16T18:16:49.675Z,15.49
2022-12-16T18:19:35.057Z,15.49
2022-12-16T18:22:20.176Z,15.48
2022-12-16T18:25:05.546Z,15.47
2022-12-16T18:27:51.762Z,15.48
2022-12-16T18:30:36.737Z,15.47
2022-12-16T18:33:21.642Z,15.49
2022-12-16T18:36:06.698Z,15.49
2022-12-16T18:38:51.613Z,15.49
2022-12-16T18:41:37.545Z,15.50
2022-12-16T18:44:24.011Z,15.50
2022-12-16T18:47:09.028Z,15.49
2022-12-16T18:49:53.915Z,15.49
2022-12-16T18:52:39.143Z,15.48
2022-12-16T18:55:24.625Z,15.49
2022-12-16T18:58:21.029Z,15.46
2022-12-16T19:01:20.176Z,15.49
2022-12-16T19:04:05.547Z,15.49
2022-12-16T19:06:50.439Z,15.49
2022-12-16T19:09:35.352Z,15.49
2022-12-16T19:12:20.581Z,15.49
2022-12-16T19:15:05.632Z,15.50
2022-12-16T19:17:51.955Z,15.49
2022-12-16T19:20:36.917Z,15.49
2022-12-16T19:23:22.210Z,15.50
2022-12-16T19:26:07.453Z,15.49
2022-12-16T19:29:03.796Z,15.49
2022-12-16T19:31:49.047Z,15.49
2022-12-16T19:34:35.887Z,15.50
2022-12-16T19:37:20.772Z,15.49
2022-12-16T19:40:06.092Z,15.49
2022-12-16T19:43:02.387Z,15.48
2022-12-16T19:45:47.933Z,15.50
2022-12-16T19:48:32.850Z,15.50
2022-12-16T19:51:19.590Z,15.49
2022-12-16T19:54:04.833Z,15.50
2022-12-16T19:56:49.681Z,15.50
2022-12-16T19:59:34.524Z,15.49
2022-12-16T20:02:19.564Z,15.50
2022-12-16T20:05:04.644Z,15.51
2022-12-16T20:07:51.631Z,15.51
2022-12-16T20:10:36.817Z,15.49
2022-12-16T20:13:37.154Z,15.48
2022-12-16T20:16:22.342Z,15.46
2022-12-16T20:19:07.276Z,15.48
2022-12-16T20:25:00.725Z,15.49
2022-12-16T20:27:45.753Z,15.49
2022-12-16T20:30:30.753Z,15.49
2022-12-16T20:33:16.346Z,15.49
2022-12-16T20:36:01.468Z,15.48
2022-12-16T20:38:46.599Z,15.48
2022-12-16T20:41:33.322Z,15.48
2022-12-16T20:44:18.508Z,15.49
2022-12-16T20:47:03.370Z,15.50
2022-12-16T20:49:48.377Z,15.48
2022-12-16T20:52:33.338Z,15.49
2022-12-16T20:55:18.298Z,15.50
2022-12-16T20:58:04.623Z,15.50
2022-12-16T21:00:49.534Z,15.48
2022-12-16T21:03:34.879Z,15.48
2022-12-16T21:06:21.747Z,15.48
2022-12-16T21:09:06.921Z,15.48
2022-12-16T21:11:51.776Z,15.48
2022-12-16T21:14:37.875Z,15.48
2022-12-16T21:17:22.897Z,15.47
2022-12-16T21:20:08.034Z,15.48
2022-12-16T21:22:54.456Z,15.47
2022-12-16T21:25:41.200Z,15.46
2022-12-16T21:28:40.639Z,15.47
2022-12-16T21:31:29.779Z,15.47
2022-12-16T21:34:14.240Z,15.46
2022-12-16T21:36:59.241Z,15.45
2022-12-16T21:39:44.568Z,15.45
2022-12-16T21:42:35.013Z,15.45
2022-12-16T21:45:20.964Z,15.46
2022-12-16T21:48:07.397Z,15.47
2022-12-16T21:50:52.270Z,15.47
2022-12-16T21:53:38.823Z,15.46
2022-12-16T21:56:23.936Z,15.47
2022-12-16T21:59:09.116Z,15.46
2022-12-16T22:01:54.834Z,15.45
2022-12-16T22:04:43.391Z,15.49
2022-12-16T22:07:42.833Z,15.50
2022-12-16T22:10:28.413Z,15.49
2022-12-16T22:13:13.416Z,15.48
2022-12-16T22:16:02.405Z,15.47
2022-12-16T22:18:48.444Z,15.48
2022-12-16T22:21:34.897Z,15.47
2022-12-16T22:24:19.852Z,15.47
2022-12-16T22:27:05.091Z,15.48
2022-12-16T22:29:50.036Z,15.48
2022-12-16T22:32:34.965Z,15.47
2022-12-16T22:35:19.940Z,15.47
2022-12-16T22:38:06.660Z,15.47
2022-12-16T22:40:51.535Z,15.45
2022-12-16T22:43:37.689Z,15.47
2022-12-16T22:46:23.069Z,15.47
2022-12-16T22:49:08.026Z,15.47
2022-12-16T22:51:53.893Z,15.49
2022-12-16T22:54:40.358Z,15.47
2022-12-16T22:57:25.568Z,15.48
2022-12-16T23:00:10.529Z,15.47
2022-12-16T23:02:55.575Z,15.47
2022-12-16T23:05:41.769Z,15.46
2022-12-16T23:08:26.594Z,15.46
2022-12-16T23:11:19.028Z,15.46
2022-12-16T23:14:04.508Z,15.45
2022-12-16T23:16:49.455Z,15.45
2022-12-16T23:19:34.442Z,15.45
2022-12-16T23:22:19.546Z,15.47
2022-12-16T23:25:04.491Z,15.47
2022-12-16T23:27:51.410Z,15.46
2022-12-16T23:48:24.188Z,15.44
2022-12-16T23:51:09.134Z,15.44
2022-12-16T23:53:54.968Z,15.44
2022-12-16T23:56:41.789Z,15.43
2022-12-16T23:59:26.639Z,15.43
